sensor_id;sensor_type;location;lat;lon;timestamp;pressure;altitude;pressure_sealevel;temperature;humidity
6425;BME280;12193;42.642;23.384;2023-04-27T00:02:01;94096.69;;;8.45;67.98
6425;BME280;12193;42.642;23.384;2023-04-27T00:04:31;94100.03;;;8.46;67.35
6425;BME280;12193;42.642;23.384;2023-04-27T03:08:22;94168.44;;;7.03;68.90
6425;BME280;12193;42.642;23.384;2023-04-27T03:10:51;94168.94;;;6.92;68.81
6425;BME280;12193;42.642;23.384;2023-04-27T03:13:21;94172.00;;;7.02;68.49
6425;BME280;12193;42.642;23.384;2023-04-27T03:15:51;94175.38;;;6.82;68.65
6425;BME280;12193;42.642;23.384;2023-04-27T03:18:20;94183.03;;;6.90;68.88
6425;BME280;12193;42.642;23.384;2023-04-27T03:20:49;94184.41;;;6.92;68.51
6425;BME280;12193;42.642;23.384;2023-04-27T03:23:21;94182.22;;;6.89;69.23
6425;BME280;12193;42.642;23.384;2023-04-27T03:25:50;94182.16;;;6.83;69.24
6425;BME280;12193;42.642;23.384;2023-04-27T03:28:20;94189.84;;;6.76;68.75
6425;BME280;12193;42.642;23.384;2023-04-27T03:30:49;94196.66;;;6.84;69.18
6425;BME280;12193;42.642;23.384;2023-04-27T03:33:19;94190.69;;;6.83;69.46
6425;BME280;12193;42.642;23.384;2023-04-27T03:35:54;94190.53;;;6.85;69.29
6425;BME280;12193;42.642;23.384;2023-04-27T03:38:26;94200.59;;;6.80;69.09
6425;BME280;12193;42.642;23.384;2023-04-27T03:40:56;94198.84;;;6.80;68.75
6425;BME280;12193;42.642;23.384;2023-04-27T03:43:26;94194.19;;;6.76;68.99
6425;BME280;12193;42.642;23.384;2023-04-27T03:45:55;94193.16;;;6.70;69.39
6425;BME280;12193;42.642;23.384;2023-04-27T03:48:24;94202.72;;;6.70;69.59
6425;BME280;12193;42.642;23.384;2023-04-27T03:50:54;94203.25;;;6.65;69.52
6425;BME280;12193;42.642;23.384;2023-04-27T03:53:25;94213.88;;;6.77;70.10
6425;BME280;12193;42.642;23.384;2023-04-27T03:55:55;94210.88;;;6.73;70.48
6425;BME280;12193;42.642;23.384;2023-04-27T03:58:24;94200.97;;;6.77;69.80
6425;BME280;12193;42.642;23.384;2023-04-27T04:00:53;94218.88;;;6.78;69.51
6425;BME280;12193;42.642;23.384;2023-04-27T04:03:24;94220.91;;;6.83;69.08
6425;BME280;12193;42.642;23.384;2023-04-27T04:05:53;94226.44;;;6.80;69.05
6425;BME280;12193;42.642;23.384;2023-04-27T04:08:22;94224.72;;;6.87;68.58
6425;BME280;12193;42.642;23.384;2023-04-27T04:10:55;94231.03;;;6.84;67.93
6425;BME280;12193;42.642;23.384;2023-04-27T04:13:24;94238.97;;;7.04;67.16
6425;BME280;12193;42.642;23.384;2023-04-27T04:16:00;94239.59;;;7.06;68.06
6425;BME280;12193;42.642;23.384;2023-04-27T04:18:29;94237.56;;;7.01;68.16
6425;BME280;12193;42.642;23.384;2023-04-27T04:20:59;94248.28;;;6.98;67.69
6425;BME280;12193;42.642;23.384;2023-04-27T04:23:28;94248.69;;;7.02;67.32
6425;BME280;12193;42.642;23.384;2023-04-27T04:26:01;94248.38;;;7.11;67.15
6425;BME280;12193;42.642;23.384;2023-04-27T04:28:30;94247.69;;;7.23;65.79
6425;BME280;12193;42.642;23.384;2023-04-27T04:31:00;94256.03;;;7.19;66.48
6425;BME280;12193;42.642;23.384;2023-04-27T04:33:31;94259.50;;;7.32;65.79
6425;BME280;12193;42.642;23.384;2023-04-27T04:36:02;94259.03;;;7.50;65.77
6425;BME280;12193;42.642;23.384;2023-04-27T04:38:32;94263.78;;;7.46;65.77
6425;BME280;12193;42.642;23.384;2023-04-27T04:41:04;94260.19;;;7.41;65.03
6425;BME280;12193;42.642;23.384;2023-04-27T04:43:34;94262.47;;;7.29;64.48
6425;BME280;12193;42.642;23.384;2023-04-27T04:46:03;94268.72;;;7.41;63.93
6425;BME280;12193;42.642;23.384;2023-04-27T04:48:32;94262.16;;;7.39;64.22
6425;BME280;12193;42.642;23.384;2023-04-27T04:51:04;94271.88;;;7.37;64.40
6425;BME280;12193;42.642;23.384;2023-04-27T04:53:34;94280.03;;;7.40;64.97
6425;BME280;12193;42.642;23.384;2023-04-27T04:56:12;94274.66;;;7.63;63.99
6425;BME280;12193;42.642;23.384;2023-04-27T04:58:42;94275.28;;;8.32;62.56
6425;BME280;12193;42.642;23.384;2023-04-27T05:01:11;94271.56;;;8.48;61.20
6425;BME280;12193;42.642;23.384;2023-04-27T05:03:42;94283.88;;;8.93;60.59
6425;BME280;12193;42.642;23.384;2023-04-27T05:06:11;94288.47;;;9.04;58.72
6425;BME280;12193;42.642;23.384;2023-04-27T05:08:40;94288.31;;;9.12;58.28
6425;BME280;12193;42.642;23.384;2023-04-27T05:11:12;94283.31;;;9.10;58.11
6425;BME280;12193;42.642;23.384;2023-04-27T05:13:42;94292.91;;;9.23;57.76
6425;BME280;12193;42.642;23.384;2023-04-27T05:16:11;94295.28;;;9.11;56.90
6425;BME280;12193;42.642;23.384;2023-04-27T05:18:41;94285.84;;;8.84;57.75
6425;BME280;12193;42.642;23.384;2023-04-27T05:21:15;94295.88;;;9.20;59.51
6425;BME280;12193;42.642;23.384;2023-04-27T05:23:45;94290.31;;;9.29;59.77
6425;BME280;12193;42.642;23.384;2023-04-27T05:26:18;94293.09;;;9.15;58.25
6425;BME280;12193;42.642;23.384;2023-04-27T05:28:47;94305.59;;;8.85;58.97
6425;BME280;12193;42.642;23.384;2023-04-27T05:31:17;94298.91;;;8.57;59.00
6425;BME280;12193;42.642;23.384;2023-04-27T05:33:46;94306.91;;;8.62;59.60
6425;BME280;12193;42.642;23.384;2023-04-27T05:36:15;94301.69;;;8.55;59.93
6425;BME280;12193;42.642;23.384;2023-04-27T05:38:44;94301.84;;;8.47;60.39
6425;BME280;12193;42.642;23.384;2023-04-27T05:41:17;94311.47;;;8.20;60.56
6425;BME280;12193;42.642;23.384;2023-04-27T05:43:46;94305.72;;;7.97;61.63
6425;BME280;12193;42.642;23.384;2023-04-27T05:46:16;94303.66;;;7.86;62.91
6425;BME280;12193;42.642;23.384;2023-04-27T05:48:46;94313.13;;;8.00;61.49
6425;BME280;12193;42.642;23.384;2023-04-27T05:51:15;94304.81;;;8.11;61.77
6425;BME280;12193;42.642;23.384;2023-04-27T05:53:45;94309.38;;;8.09;61.85
6425;BME280;12193;42.642;23.384;2023-04-27T05:56:17;94314.38;;;8.10;61.16
6425;BME280;12193;42.642;23.384;2023-04-27T05:58:46;94307.84;;;7.87;62.18
6425;BME280;12193;42.642;23.384;2023-04-27T06:01:15;94323.53;;;7.79;62.87
6425;BME280;12193;42.642;23.384;2023-04-27T06:03:45;94317.13;;;7.75;62.91
6425;BME280;12193;42.642;23.384;2023-04-27T06:06:14;94325.63;;;7.96;62.88
6425;BME280;12193;42.642;23.384;2023-04-27T06:08:43;94320.69;;;8.01;63.03
6425;BME280;12193;42.642;23.384;2023-04-27T06:11:12;94318.56;;;8.38;61.67
6425;BME280;12193;42.642;23.384;2023-04-27T06:13:45;94322.69;;;8.73;59.99
6425;BME280;12193;42.642;23.384;2023-04-27T06:16:14;94316.59;;;9.00;58.86
6425;BME280;12193;42.642;23.384;2023-04-27T06:18:44;94319.66;;;9.36;57.78
6425;BME280;12193;42.642;23.384;2023-04-27T06:21:13;94311.78;;;10.65;53.98
6425;BME280;12193;42.642;23.384;2023-04-27T06:23:43;94309.63;;;10.93;52.96
6425;BME280;12193;42.642;23.384;2023-04-27T06:26:12;94317.94;;;10.71;53.33
6425;BME280;12193;42.642;23.384;2023-04-27T06:28:44;94318.91;;;9.81;55.40
6425;BME280;12193;42.642;23.384;2023-04-27T06:31:13;94309.84;;;9.19;58.02
6425;BME280;12193;42.642;23.384;2023-04-27T06:33:42;94312.28;;;9.33;58.14
6425;BME280;12193;42.642;23.384;2023-04-27T06:36:12;94311.28;;;9.27;58.07
6425;BME280;12193;42.642;23.384;2023-04-27T06:38:41;94319.03;;;9.15;58.36
6425;BME280;12193;42.642;23.384;2023-04-27T06:41:11;94314.69;;;9.34;59.64
6425;BME280;12193;42.642;23.384;2023-04-27T06:43:40;94310.50;;;9.46;59.33
6425;BME280;12193;42.642;23.384;2023-04-27T06:46:12;94311.88;;;9.23;58.95
6425;BME280;12193;42.642;23.384;2023-04-27T06:48:42;94309.44;;;9.15;58.56
6425;BME280;12193;42.642;23.384;2023-04-27T06:51:11;94312.66;;;9.30;58.40
6425;BME280;12193;42.642;23.384;2023-04-27T06:53:41;94317.69;;;9.44;58.00
6425;BME280;12193;42.642;23.384;2023-04-27T06:56:11;94312.47;;;9.90;56.77
6425;BME280;12193;42.642;23.384;2023-04-27T06:58:40;94309.84;;;10.92;54.85
6425;BME280;12193;42.642;23.384;2023-04-27T07:01:12;94307.94;;;11.42;52.58
6425;BME280;12193;42.642;23.384;2023-04-27T07:03:42;94307.31;;;11.53;50.94
6425;BME280;12193;42.642;23.384;2023-04-27T07:06:11;94311.84;;;11.64;51.74
6425;BME280;12193;42.642;23.384;2023-04-27T07:08:41;94308.97;;;11.97;50.52
6425;BME280;12193;42.642;23.384;2023-04-27T07:11:10;94306.16;;;11.74;49.57
6425;BME280;12193;42.642;23.384;2023-04-27T07:13:41;94299.47;;;11.23;50.80
6425;BME280;12193;42.642;23.384;2023-04-27T07:16:14;94304.00;;;11.71;49.84
6425;BME280;12193;42.642;23.384;2023-04-27T07:18:44;94299.31;;;12.04;49.43
6425;BME280;12193;42.642;23.384;2023-04-27T07:21:13;94305.19;;;12.17;49.72
6425;BME280;12193;42.642;23.384;2023-04-27T07:23:42;94309.34;;;12.43;48.14
6425;BME280;12193;42.642;23.384;2023-04-27T07:26:12;94301.75;;;12.77;47.38
6425;BME280;12193;42.642;23.384;2023-04-27T07:28:42;94302.25;;;13.73;44.79
6425;BME280;12193;42.642;23.384;2023-04-27T07:31:15;94299.44;;;13.75;44.74
6425;BME280;12193;42.642;23.384;2023-04-27T07:33:44;94301.19;;;14.50;41.84
6425;BME280;12193;42.642;23.384;2023-04-27T07:36:14;94293.38;;;14.89;41.67
6425;BME280;12193;42.642;23.384;2023-04-27T07:38:43;94301.47;;;16.15;38.36
6425;BME280;12193;42.642;23.384;2023-04-27T07:41:13;94292.00;;;16.47;37.78
6425;BME280;12193;42.642;23.384;2023-04-27T07:43:42;94295.56;;;15.31;39.04
6425;BME280;12193;42.642;23.384;2023-04-27T07:46:16;94292.22;;;15.08;40.25
6425;BME280;12193;42.642;23.384;2023-04-27T07:48:46;94293.41;;;15.17;40.53
6425;BME280;12193;42.642;23.384;2023-04-27T07:51:16;94293.38;;;14.89;41.41
6425;BME280;12193;42.642;23.384;2023-04-27T07:53:46;94295.59;;;14.57;40.80
6425;BME280;12193;42.642;23.384;2023-04-27T07:56:16;94297.44;;;13.59;41.36
6425;BME280;12193;42.642;23.384;2023-04-27T07:58:46;94295.25;;;13.33;43.25
6425;BME280;12193;42.642;23.384;2023-04-27T08:01:18;94301.78;;;13.65;42.42
6425;BME280;12193;42.642;23.384;2023-04-27T08:03:48;94298.22;;;14.00;40.42
6425;BME280;12193;42.642;23.384;2023-04-27T08:06:17;94294.28;;;14.21;40.14
6425;BME280;12193;42.642;23.384;2023-04-27T08:08:47;94294.38;;;14.14;39.60
6425;BME280;12193;42.642;23.384;2023-04-27T08:11:16;94298.72;;;14.43;39.96
6425;BME280;12193;42.642;23.384;2023-04-27T08:13:46;94301.03;;;15.30;38.27
6425;BME280;12193;42.642;23.384;2023-04-27T08:16:18;94295.03;;;16.77;36.25
6425;BME280;12193;42.642;23.384;2023-04-27T08:18:48;94287.00;;;17.05;34.71
6425;BME280;12193;42.642;23.384;2023-04-27T08:21:17;94294.47;;;16.37;36.49
6425;BME280;12193;42.642;23.384;2023-04-27T08:23:47;94289.63;;;15.96;36.07
6425;BME280;12193;42.642;23.384;2023-04-27T08:26:17;94289.25;;;15.44;37.98
6425;BME280;12193;42.642;23.384;2023-04-27T08:28:46;94288.81;;;14.57;39.26
6425;BME280;12193;42.642;23.384;2023-04-27T08:31:18;94289.34;;;14.58;40.13
6425;BME280;12193;42.642;23.384;2023-04-27T08:33:47;94285.50;;;14.61;40.28
6425;BME280;12193;42.642;23.384;2023-04-27T08:36:17;94291.22;;;14.24;39.49
6425;BME280;12193;42.642;23.384;2023-04-27T08:38:47;94297.44;;;14.34;39.45
6425;BME280;12193;42.642;23.384;2023-04-27T08:41:20;94291.06;;;14.42;40.58
6425;BME280;12193;42.642;23.384;2023-04-27T08:43:50;94291.31;;;14.17;39.72
6425;BME280;12193;42.642;23.384;2023-04-27T08:46:23;94291.63;;;14.09;41.56
6425;BME280;12193;42.642;23.384;2023-04-27T08:48:53;94297.63;;;13.87;41.81
6425;BME280;12193;42.642;23.384;2023-04-27T08:51:23;94301.41;;;14.02;41.77
6425;BME280;12193;42.642;23.384;2023-04-27T08:53:55;94291.16;;;14.12;41.66
6425;BME280;12193;42.642;23.384;2023-04-27T08:56:26;94287.03;;;13.30;42.11
6425;BME280;12193;42.642;23.384;2023-04-27T08:58:56;94300.47;;;13.04;42.92
6425;BME280;12193;42.642;23.384;2023-04-27T09:01:29;94289.56;;;12.89;43.83
6425;BME280;12193;42.642;23.384;2023-04-27T09:04:00;94292.16;;;13.25;44.42
6425;BME280;12193;42.642;23.384;2023-04-27T09:06:34;94297.72;;;13.28;44.78
6425;BME280;12193;42.642;23.384;2023-04-27T09:09:03;94287.75;;;13.07;44.75
6425;BME280;12193;42.642;23.384;2023-04-27T09:11:34;94291.81;;;13.03;44.12
6425;BME280;12193;42.642;23.384;2023-04-27T09:14:16;94285.63;;;13.16;43.78
6425;BME280;12193;42.642;23.384;2023-04-27T09:16:53;94283.16;;;13.21;44.20
6425;BME280;12193;42.642;23.384;2023-04-27T09:19:25;94290.28;;;13.54;43.60
6425;BME280;12193;42.642;23.384;2023-04-27T09:22:05;94287.94;;;13.76;41.80
6425;BME280;12193;42.642;23.384;2023-04-27T09:24:36;94284.34;;;14.11;41.58
6425;BME280;12193;42.642;23.384;2023-04-27T09:27:06;94283.28;;;14.81;40.82
6425;BME280;12193;42.642;23.384;2023-04-27T09:29:37;94280.25;;;14.72;41.82
6425;BME280;12193;42.642;23.384;2023-04-27T09:32:18;94273.56;;;13.96;40.88
6425;BME280;12193;42.642;23.384;2023-04-27T09:34:48;94265.59;;;13.91;40.61
6425;BME280;12193;42.642;23.384;2023-04-27T09:37:18;94271.53;;;14.10;40.94
6425;BME280;12193;42.642;23.384;2023-04-27T09:39:47;94258.41;;;13.64;41.72
6425;BME280;12193;42.642;23.384;2023-04-27T09:42:17;94259.78;;;13.55;42.30
6425;BME280;12193;42.642;23.384;2023-04-27T09:44:47;94268.28;;;13.62;42.67
6425;BME280;12193;42.642;23.384;2023-04-27T09:47:20;94258.75;;;13.67;42.09
6425;BME280;12193;42.642;23.384;2023-04-27T09:49:50;94257.00;;;13.39;41.77
6425;BME280;12193;42.642;23.384;2023-04-27T09:52:20;94248.50;;;13.54;42.53
6425;BME280;12193;42.642;23.384;2023-04-27T09:54:49;94256.16;;;13.79;41.76
6425;BME280;12193;42.642;23.384;2023-04-27T09:57:27;94254.91;;;14.50;42.22
6425;BME280;12193;42.642;23.384;2023-04-27T10:00:09;94254.50;;;15.97;40.56
6425;BME280;12193;42.642;23.384;2023-04-27T10:02:54;94248.63;;;15.90;37.03
6425;BME280;12193;42.642;23.384;2023-04-27T10:05:37;94242.56;;;15.41;37.39
6425;BME280;12193;42.642;23.384;2023-04-27T10:08:10;94244.38;;;14.84;38.36
6425;BME280;12193;42.642;23.384;2023-04-27T10:10:46;94250.47;;;15.90;37.44
6425;BME280;12193;42.642;23.384;2023-04-27T10:13:24;94244.28;;;15.96;37.66
6425;BME280;12193;42.642;23.384;2023-04-27T10:15:54;94241.13;;;15.33;37.17
6425;BME280;12193;42.642;23.384;2023-04-27T10:18:30;94245.97;;;14.35;37.98
6425;BME280;12193;42.642;23.384;2023-04-27T10:21:09;94246.44;;;14.20;38.86
6425;BME280;12193;42.642;23.384;2023-04-27T10:23:45;94244.94;;;14.01;39.88
6425;BME280;12193;42.642;23.384;2023-04-27T10:26:22;94248.66;;;14.40;39.21
6425;BME280;12193;42.642;23.384;2023-04-27T10:28:59;94244.94;;;14.36;39.37
6425;BME280;12193;42.642;23.384;2023-04-27T10:31:34;94243.66;;;13.92;39.55
6425;BME280;12193;42.642;23.384;2023-04-27T10:34:10;94236.72;;;14.94;39.09
6425;BME280;12193;42.642;23.384;2023-04-27T10:36:40;94243.44;;;16.28;36.54
6425;BME280;12193;42.642;23.384;2023-04-27T10:39:16;94240.84;;;16.12;36.15
6425;BME280;12193;42.642;23.384;2023-04-27T10:41:52;94242.91;;;15.61;36.71
6425;BME280;12193;42.642;23.384;2023-04-27T10:44:25;94234.44;;;14.98;38.09
6425;BME280;12193;42.642;23.384;2023-04-27T10:46:56;94239.97;;;15.57;37.30
6425;BME280;12193;42.642;23.384;2023-04-27T10:49:29;94238.84;;;16.19;34.71
6425;BME280;12193;42.642;23.384;2023-04-27T10:51:59;94238.28;;;16.17;34.74
6425;BME280;12193;42.642;23.384;2023-04-27T10:54:30;94236.38;;;15.63;35.35
6425;BME280;12193;42.642;23.384;2023-04-27T10:57:06;94232.47;;;15.05;36.30
6425;BME280;12193;42.642;23.384;2023-04-27T10:59:47;94236.75;;;14.83;37.20
6425;BME280;12193;42.642;23.384;2023-04-27T11:02:24;94236.78;;;14.99;37.40
6425;BME280;12193;42.642;23.384;2023-04-27T11:04:57;94241.59;;;14.91;37.44
6425;BME280;12193;42.642;23.384;2023-04-27T11:07:27;94232.19;;;14.39;38.15
6425;BME280;12193;42.642;23.384;2023-04-27T11:09:57;94229.50;;;15.90;35.82
6425;BME280;12193;42.642;23.384;2023-04-27T11:12:27;94221.22;;;16.52;34.77
6425;BME280;12193;42.642;23.384;2023-04-27T11:14:56;94228.28;;;15.81;34.69
6425;BME280;12193;42.642;23.384;2023-04-27T11:17:30;94217.91;;;14.69;35.85
6425;BME280;12193;42.642;23.384;2023-04-27T11:20:04;94230.66;;;14.66;36.59
6425;BME280;12193;42.642;23.384;2023-04-27T11:22:33;94227.50;;;14.64;36.65
6425;BME280;12193;42.642;23.384;2023-04-27T11:25:04;94233.31;;;14.55;36.63
6425;BME280;12193;42.642;23.384;2023-04-27T11:27:37;94235.25;;;14.48;37.04
6425;BME280;12193;42.642;23.384;2023-04-27T11:30:18;94229.25;;;14.01;36.94
6425;BME280;12193;42.642;23.384;2023-04-27T11:32:47;94234.47;;;14.01;37.55
6425;BME280;12193;42.642;23.384;2023-04-27T11:35:31;94241.91;;;14.16;37.76
6425;BME280;12193;42.642;23.384;2023-04-27T11:38:00;94241.50;;;13.55;39.13
6425;BME280;12193;42.642;23.384;2023-04-27T11:40:30;94231.81;;;13.44;39.32
6425;BME280;12193;42.642;23.384;2023-04-27T11:43:01;94245.34;;;13.64;39.50
6425;BME280;12193;42.642;23.384;2023-04-27T11:45:31;94243.34;;;13.89;39.09
6425;BME280;12193;42.642;23.384;2023-04-27T11:48:05;94239.19;;;14.61;38.44
6425;BME280;12193;42.642;23.384;2023-04-27T11:50:37;94238.63;;;15.71;37.34
6425;BME280;12193;42.642;23.384;2023-04-27T11:53:06;94252.06;;;15.91;37.17
6425;BME280;12193;42.642;23.384;2023-04-27T11:55:36;94241.47;;;15.25;36.47
6425;BME280;12193;42.642;23.384;2023-04-27T11:58:12;94241.00;;;14.72;37.55
6425;BME280;12193;42.642;23.384;2023-04-27T12:00:42;94239.59;;;14.81;37.49
6425;BME280;12193;42.642;23.384;2023-04-27T12:03:12;94244.09;;;14.58;38.19
6425;BME280;12193;42.642;23.384;2023-04-27T12:05:50;94251.41;;;14.22;38.21
6425;BME280;12193;42.642;23.384;2023-04-27T12:08:19;94247.78;;;14.34;39.45
6425;BME280;12193;42.642;23.384;2023-04-27T12:10:50;94241.22;;;14.71;37.41
6425;BME280;12193;42.642;23.384;2023-04-27T12:13:19;94249.81;;;14.44;37.88
6425;BME280;12193;42.642;23.384;2023-04-27T12:15:48;94252.41;;;13.63;38.57
6425;BME280;12193;42.642;23.384;2023-04-27T12:18:18;94259.13;;;13.30;39.23
6425;BME280;12193;42.642;23.384;2023-04-27T12:20:50;94252.78;;;13.38;39.48
6425;BME280;12193;42.642;23.384;2023-04-27T12:23:19;94257.44;;;13.36;40.14
6425;BME280;12193;42.642;23.384;2023-04-27T12:25:49;94261.84;;;13.35;39.54
6425;BME280;12193;42.642;23.384;2023-04-27T12:28:18;94249.22;;;13.61;39.50
6425;BME280;12193;42.642;23.384;2023-04-27T12:30:47;94258.66;;;13.62;39.58
6425;BME280;12193;42.642;23.384;2023-04-27T12:33:17;94261.03;;;13.75;40.46
6425;BME280;12193;42.642;23.384;2023-04-27T12:35:50;94255.84;;;13.98;38.92
6425;BME280;12193;42.642;23.384;2023-04-27T12:38:19;94258.47;;;14.21;39.14
6425;BME280;12193;42.642;23.384;2023-04-27T12:40:49;94257.34;;;14.29;37.56
6425;BME280;12193;42.642;23.384;2023-04-27T12:43:18;94262.44;;;14.24;38.34
6425;BME280;12193;42.642;23.384;2023-04-27T12:45:47;94263.88;;;13.97;39.21
6425;BME280;12193;42.642;23.384;2023-04-27T12:48:17;94260.53;;;14.19;38.45
6425;BME280;12193;42.642;23.384;2023-04-27T12:50:51;94263.34;;;14.18;38.85
6425;BME280;12193;42.642;23.384;2023-04-27T12:53:20;94256.75;;;14.27;38.65
6425;BME280;12193;42.642;23.384;2023-04-27T12:55:49;94262.81;;;14.16;39.00
6425;BME280;12193;42.642;23.384;2023-04-27T12:58:19;94263.44;;;14.11;39.19
6425;BME280;12193;42.642;23.384;2023-04-27T13:00:48;94254.03;;;14.22;38.56
6425;BME280;12193;42.642;23.384;2023-04-27T13:03:17;94256.88;;;14.43;38.96
6425;BME280;12193;42.642;23.384;2023-04-27T13:05:50;94263.88;;;14.54;37.93
6425;BME280;12193;42.642;23.384;2023-04-27T13:08:20;94259.03;;;14.46;39.33
6425;BME280;12193;42.642;23.384;2023-04-27T13:10:49;94253.13;;;14.28;38.70
6425;BME280;12193;42.642;23.384;2023-04-27T13:13:18;94260.72;;;14.06;38.21
6425;BME280;12193;42.642;23.384;2023-04-27T13:15:48;94258.06;;;13.60;39.36
6425;BME280;12193;42.642;23.384;2023-04-27T13:18:17;94258.53;;;13.17;40.43
6425;BME280;12193;42.642;23.384;2023-04-27T13:20:49;94256.03;;;13.62;39.80
6425;BME280;12193;42.642;23.384;2023-04-27T13:23:19;94253.66;;;13.95;41.04
6425;BME280;12193;42.642;23.384;2023-04-27T13:25:49;94252.66;;;13.96;38.86
6425;BME280;12193;42.642;23.384;2023-04-27T13:28:18;94244.22;;;13.83;39.03
6425;BME280;12193;42.642;23.384;2023-04-27T13:30:48;94252.53;;;13.80;39.03
6425;BME280;12193;42.642;23.384;2023-04-27T13:33:17;94249.19;;;13.50;39.42
6425;BME280;12193;42.642;23.384;2023-04-27T13:35:46;94250.75;;;13.40;39.45
6425;BME280;12193;42.642;23.384;2023-04-27T13:38:18;94251.53;;;12.99;39.45
6425;BME280;12193;42.642;23.384;2023-04-27T13:40:48;94251.44;;;12.88;40.64
6425;BME280;12193;42.642;23.384;2023-04-27T13:43:17;94254.81;;;12.77;40.38
6425;BME280;12193;42.642;23.384;2023-04-27T13:45:47;94256.88;;;13.04;40.19
6425;BME280;12193;42.642;23.384;2023-04-27T13:48:18;94258.38;;;13.12;40.71
6425;BME280;12193;42.642;23.384;2023-04-27T13:50:47;94257.16;;;13.26;39.92
6425;BME280;12193;42.642;23.384;2023-04-27T13:53:19;94261.16;;;13.28;39.45
6425;BME280;12193;42.642;23.384;2023-04-27T13:55:51;94255.19;;;13.50;40.02
6425;BME280;12193;42.642;23.384;2023-04-27T13:58:20;94261.03;;;13.64;39.96
6425;BME280;12193;42.642;23.384;2023-04-27T14:00:50;94267.59;;;13.66;39.98
6425;BME280;12193;42.642;23.384;2023-04-27T14:03:20;94264.50;;;13.47;39.66
6425;BME280;12193;42.642;23.384;2023-04-27T14:05:49;94265.16;;;13.42;39.46
6425;BME280;12193;42.642;23.384;2023-04-27T14:08:21;94264.88;;;13.50;39.88
6425;BME280;12193;42.642;23.384;2023-04-27T14:10:52;94265.53;;;13.57;39.41
6425;BME280;12193;42.642;23.384;2023-04-27T14:13:21;94266.03;;;13.65;39.29
6425;BME280;12193;42.642;23.384;2023-04-27T14:15:51;94263.97;;;13.79;40.17
6425;BME280;12193;42.642;23.384;2023-04-27T14:18:20;94268.34;;;13.96;39.07
6425;BME280;12193;42.642;23.384;2023-04-27T14:20:49;94277.19;;;13.84;38.63
6425;BME280;12193;42.642;23.384;2023-04-27T14:23:23;94273.22;;;13.81;38.56
6425;BME280;12193;42.642;23.384;2023-04-27T14:25:53;94281.25;;;13.28;39.75
6425;BME280;12193;42.642;23.384;2023-04-27T14:28:22;94274.41;;;13.45;39.81
6425;BME280;12193;42.642;23.384;2023-04-27T14:30:52;94284.59;;;13.46;39.74
6425;BME280;12193;42.642;23.384;2023-04-27T14:33:22;94283.00;;;13.45;39.53
6425;BME280;12193;42.642;23.384;2023-04-27T14:35:51;94288.97;;;13.63;39.59
6425;BME280;12193;42.642;23.384;2023-04-27T14:38:24;94296.16;;;13.79;39.79
6425;BME280;12193;42.642;23.384;2023-04-27T14:40:53;94296.72;;;13.81;38.36
6425;BME280;12193;42.642;23.384;2023-04-27T14:43:23;94293.81;;;13.60;38.87
6425;BME280;12193;42.642;23.384;2023-04-27T14:45:52;94299.69;;;13.96;39.57
6425;BME280;12193;42.642;23.384;2023-04-27T14:48:22;94294.78;;;14.00;38.30
6425;BME280;12193;42.642;23.384;2023-04-27T14:50:51;94298.34;;;14.05;38.00
6425;BME280;12193;42.642;23.384;2023-04-27T14:53:24;94292.75;;;13.90;38.75
6425;BME280;12193;42.642;23.384;2023-04-27T14:55:53;94299.13;;;13.94;38.61
6425;BME280;12193;42.642;23.384;2023-04-27T14:58:23;94301.56;;;13.78;39.12
6425;BME280;12193;42.642;23.384;2023-04-27T15:00:52;94304.28;;;13.60;38.90
6425;BME280;12193;42.642;23.384;2023-04-27T15:03:21;94306.50;;;13.45;38.76
6425;BME280;12193;42.642;23.384;2023-04-27T15:05:51;94312.06;;;13.48;39.01
6425;BME280;12193;42.642;23.384;2023-04-27T15:08:23;94307.66;;;13.49;38.37
6425;BME280;12193;42.642;23.384;2023-04-27T15:10:53;94314.63;;;13.37;38.42
6425;BME280;12193;42.642;23.384;2023-04-27T15:13:25;94306.38;;;13.40;39.40
6425;BME280;12193;42.642;23.384;2023-04-27T15:15:54;94310.47;;;13.48;38.75
6425;BME280;12193;42.642;23.384;2023-04-27T15:18:24;94317.47;;;13.06;38.93
6425;BME280;12193;42.642;23.384;2023-04-27T15:20:54;94317.13;;;13.03;39.25
6425;BME280;12193;42.642;23.384;2023-04-27T15:23:26;94312.97;;;12.95;40.35
6425;BME280;12193;42.642;23.384;2023-04-27T15:25:57;94325.00;;;12.96;39.65
6425;BME280;12193;42.642;23.384;2023-04-27T15:28:27;94329.00;;;12.81;39.94
6425;BME280;12193;42.642;23.384;2023-04-27T15:30:58;94325.50;;;12.51;40.22
6425;BME280;12193;42.642;23.384;2023-04-27T15:33:28;94326.50;;;12.50;40.30
6425;BME280;12193;42.642;23.384;2023-04-27T15:35:58;94330.06;;;12.55;40.49
6425;BME280;12193;42.642;23.384;2023-04-27T15:38:30;94327.53;;;12.49;40.40
6425;BME280;12193;42.642;23.384;2023-04-27T15:40:59;94337.41;;;12.23;40.34
6425;BME280;12193;42.642;23.384;2023-04-27T15:43:29;94337.91;;;12.13;40.50
6425;BME280;12193;42.642;23.384;2023-04-27T15:45:58;94344.59;;;11.78;41.24
6425;BME280;12193;42.642;23.384;2023-04-27T15:48:27;94343.47;;;11.68;41.66
6425;BME280;12193;42.642;23.384;2023-04-27T15:50:57;94340.88;;;11.68;41.50
6425;BME280;12193;42.642;23.384;2023-04-27T15:53:28;94340.47;;;11.71;41.71
6425;BME280;12193;42.642;23.384;2023-04-27T15:55:58;94340.00;;;11.74;41.78
6425;BME280;12193;42.642;23.384;2023-04-27T15:58:27;94340.69;;;11.63;42.09
6425;BME280;12193;42.642;23.384;2023-04-27T16:00:57;94348.88;;;11.66;42.32
6425;BME280;12193;42.642;23.384;2023-04-27T16:03:27;94350.72;;;11.53;42.17
6425;BME280;12193;42.642;23.384;2023-04-27T16:05:56;94356.31;;;11.63;42.68
6425;BME280;12193;42.642;23.384;2023-04-27T16:08:28;94353.94;;;11.61;42.60
6425;BME280;12193;42.642;23.384;2023-04-27T16:10:58;94362.75;;;11.60;42.87
6425;BME280;12193;42.642;23.384;2023-04-27T16:13:28;94356.78;;;11.47;43.36
6425;BME280;12193;42.642;23.384;2023-04-27T16:15:58;94359.38;;;11.53;43.31
6425;BME280;12193;42.642;23.384;2023-04-27T16:18:27;94361.75;;;11.55;43.18
6425;BME280;12193;42.642;23.384;2023-04-27T16:20:56;94360.03;;;11.36;43.40
6425;BME280;12193;42.642;23.384;2023-04-27T16:23:29;94374.47;;;11.32;43.04